Time;durP1;ratioP1;P1;durP2;ratioP2;P2;SDS_P1;SDS_P2;PMS_P1;PMS_P2;Temp;Humidity;BMP_temperature;BMP_pressure;BME280_temperature;BME280_humidity;BME280_pressure;Samples;Min_cycle;Max_cycle;Signal;HPM_P1;HPM_P2
2019/07/26 00:01:10;;;;;;;8.7;6.6;;;;;;;27.79;48.89258;997.5394;;;;
2019/07/26 00:03:23;;;;;;;9.5;6.6;;;;;;;27.82;49.00195;997.4858;;;;
2019/07/26 00:05:48;;;;;;;7.2;6.3;;;;;;;27.88;48.44824;997.5245;;;;
2019/07/26 00:08:14;;;;;;;9.1;6.6;;;;;;;27.86;48.65039;997.4733;;;;
2019/07/26 00:10:42;;;;;;;8.1;6.6;;;;;;;27.84;48.39746;997.468;;;;
2019/07/26 00:13:06;;;;;;;9;6.7;;;;;;;27.9;47.93945;997.4397;;;;
2019/07/26 00:15:31;;;;;;;7.4;6.5;;;;;;;27.81;49.01367;997.423;;;;
2019/07/26 00:17:57;;;;;;;7.9;6.9;;;;;;;27.58;51.99902;997.4748;;;;
2019/07/26 00:20:22;;;;;;;8.7;6.5;;;;;;;27.35;51.29395;997.4614;;;;
2019/07/26 00:22:46;;;;;;;9.7;6.7;;;;;;;27.17;51.83203;997.4281;;;;
2019/07/26 00:25:11;;;;;;;8.6;6.8;;;;;;;27.07;53.1875;997.4449;;;;
2019/07/26 00:27:36;;;;;;;8.5;7;;;;;;;26.82;54.04883;997.4506;;;;
2019/07/26 00:30:01;;;;;;;8.1;6.8;;;;;;;26.64;54.60938;997.498;;;;
2019/07/26 00:32:26;;;;;;;8.8;6.6;;;;;;;26.52;53.72852;997.5144;;;;
2019/07/26 00:34:53;;;;;;;7.1;6.4;;;;;;;26.61;53.22852;997.5131;;;;
2019/07/26 00:37:18;;;;;;;7.7;6.8;;;;;;;26.61;53.10938;997.5195;;;;
2019/07/26 00:39:43;;;;;;;9.7;7.9;;;;;;;26.59;53.50977;997.4998;;;;
2019/07/26 00:42:08;;;;;;;9.1;7.4;;;;;;;26.55;53.70801;997.4928;;;;
2019/07/26 00:44:34;;;;;;;7.6;6.6;;;;;;;26.55;53.80273;997.4836;;;;
2019/07/26 00:46:59;;;;;;;7.6;6.8;;;;;;;26.62;53.12207;997.5417;;;;
2019/07/26 00:49:24;;;;;;;8.7;6.9;;;;;;;26.64;53.57617;997.5725;;;;
2019/07/26 00:51:49;;;;;;;8;7.1;;;;;;;26.56;54.49316;997.5848;;;;
2019/07/26 00:54:14;;;;;;;8.1;6.9;;;;;;;26.47;54.7666;997.5815;;;;
2019/07/26 00:56:39;;;;;;;8.5;6.9;;;;;;;26.36;55.01367;997.4958;;;;
2019/07/26 00:59:05;;;;;;;7.6;6.8;;;;;;;26.27;55.3125;997.4316;;;;
2019/07/26 01:01:30;;;;;;;9.6;6.9;;;;;;;26.21;55.2207;997.4504;;;;
2019/07/26 01:03:54;;;;;;;10.4;7.2;;;;;;;26.21;55.25586;997.4116;;;;
2019/07/26 01:06:20;;;;;;;8;7;;;;;;;26.28;55.57324;997.5067;;;;
2019/07/26 01:08:45;;;;;;;7.7;6.9;;;;;;;26.44;55.65332;997.5198;;;;
2019/07/26 01:11:09;;;;;;;9.8;7.5;;;;;;;26.45;55.79688;997.5489;;;;
2019/07/26 01:13:34;;;;;;;7.9;6.8;;;;;;;26.32;56.23145;997.5848;;;;
2019/07/26 01:16:00;;;;;;;7.7;7;;;;;;;26.06;56.89746;997.5972;;;;
2019/07/26 01:18:25;;;;;;;9.3;7.3;;;;;;;25.81;57.63867;997.5767;;;;
2019/07/26 01:20:50;;;;;;;9.7;7.4;;;;;;;25.85;57.20313;997.61;;;;
2019/07/26 01:23:15;;;;;;;10.2;7.3;;;;;;;25.89;57.00781;997.5887;;;;
2019/07/26 01:25:40;;;;;;;9.5;7.7;;;;;;;25.8;56.53223;997.5631;;;;
2019/07/26 01:28:05;;;;;;;9.5;7.7;;;;;;;25.69;57.27832;997.5603;;;;
2019/07/26 01:30:30;;;;;;;7.8;7;;;;;;;25.75;57.43945;997.5922;;;;
2019/07/26 01:32:55;;;;;;;8.9;7.8;;;;;;;25.67;57.39355;997.5561;;;;
2019/07/26 01:35:20;;;;;;;10.9;7.3;;;;;;;25.65;57.55566;997.5338;;;;
2019/07/26 01:37:45;;;;;;;8;7.1;;;;;;;25.71;57.33984;997.5167;;;;
2019/07/26 01:40:10;;;;;;;9.4;7;;;;;;;25.66;57.3457;997.4796;;;;
2019/07/26 01:42:36;;;;;;;7.9;7.1;;;;;;;25.73;56.95117;997.5006;;;;
2019/07/26 01:45:01;;;;;;;8.3;7.3;;;;;;;25.78;56.54199;997.4723;;;;
2019/07/26 01:47:26;;;;;;;9.5;7;;;;;;;25.77;56.51758;997.4453;;;;
2019/07/26 01:49:51;;;;;;;9.5;7.1;;;;;;;25.85;55.85156;997.4788;;;;
2019/07/26 01:52:16;;;;;;;8.8;7.3;;;;;;;25.98;56.47266;997.4437;;;;
2019/07/26 01:54:41;;;;;;;8.3;7.1;;;;;;;25.91;57.45996;997.475;;;;
2019/07/26 01:57:06;;;;;;;9.2;7.7;;;;;;;25.85;57.98535;997.48;;;;
2019/07/26 01:59:31;;;;;;;8.5;7.6;;;;;;;25.7;57.70605;997.4394;;;;
2019/07/26 02:01:56;;;;;;;11.2;7.6;;;;;;;25.51;58.49902;997.4274;;;;
2019/07/26 02:04:22;;;;;;;7.8;7;;;;;;;25.39;58.0918;997.4207;;;;
2019/07/26 02:06:47;;;;;;;8.4;7;;;;;;;25.42;58.04883;997.442;;;;
2019/07/26 02:09:12;;;;;;;10.1;7.5;;;;;;;25.47;58.76465;997.4114;;;;
2019/07/26 02:11:37;;;;;;;7.7;6.9;;;;;;;25.45;57.81543;997.3756;;;;
2019/07/26 02:14:02;;;;;;;8.1;7;;;;;;;25.5;57.64355;997.4079;;;;
2019/07/26 02:16:27;;;;;;;9.3;7.2;;;;;;;25.48;57.19238;997.3805;;;;
2019/07/26 02:18:52;;;;;;;8.1;7.3;;;;;;;25.5;57.14648;997.3438;;;;
2019/07/26 02:21:17;;;;;;;9;6.7;;;;;;;25.53;56.90234;997.3052;;;;
2019/07/26 02:23:42;;;;;;;8;7.1;;;;;;;25.6;56.46094;997.313;;;;
2019/07/26 02:26:07;;;;;;;8.6;7.1;;;;;;;25.65;56.2998;997.3172;;;;
2019/07/26 02:28:34;;;;;;;10.5;7.2;;;;;;;25.59;56.41113;997.3013;;;;
2019/07/26 02:30:59;;;;;;;7.5;6.8;;;;;;;25.6;56.28223;997.2778;;;;
2019/07/26 02:33:24;;;;;;;7.9;6.8;;;;;;;25.59;56.48242;997.2227;;;;
2019/07/26 02:35:50;;;;;;;7.8;7.1;;;;;;;25.6;56.50781;997.2422;;;;
2019/07/26 02:38:15;;;;;;;7.7;6.9;;;;;;;25.54;56.78516;997.1993;;;;
2019/07/26 02:40:40;;;;;;;7.8;7.1;;;;;;;25.55;56.64355;997.1915;;;;
2019/07/26 02:43:06;;;;;;;8.7;7;;;;;;;25.55;57.50879;997.2395;;;;
2019/07/26 02:45:32;;;;;;;9.6;7.3;;;;;;;25.51;57.93066;997.2719;;;;
2019/07/26 02:47:57;;;;;;;9.4;7;;;;;;;25.52;58.27441;997.2522;;;;
2019/07/26 02:50:21;;;;;;;8.6;7.5;;;;;;;25.32;58.63867;997.2064;;;;
2019/07/26 02:52:47;;;;;;;9.5;7.1;;;;;;;25.28;58.92969;997.2095;;;;
2019/07/26 02:55:12;;;;;;;9.4;7.4;;;;;;;25.13;59.46582;997.1948;;;;
2019/07/26 02:57:37;;;;;;;9.4;7.4;;;;;;;25.16;59.64746;997.209;;;;
2019/07/26 03:00:03;;;;;;;9;7.4;;;;;;;25.03;60.08008;997.2299;;;;
2019/07/26 03:02:29;;;;;;;7.9;7.2;;;;;;;25.06;59.18555;997.1932;;;;
2019/07/26 03:04:52;;;;;;;7.8;7;;;;;;;25.14;57.87109;997.1785;;;;
2019/07/26 03:07:17;;;;;;;8.5;7.1;;;;;;;25.13;58.78125;997.1492;;;;
2019/07/26 03:09:43;;;;;;;7.9;7.1;;;;;;;25.1;58.90625;997.1551;;;;
2019/07/26 03:12:07;;;;;;;8.4;7.1;;;;;;;25.14;58.27246;997.1884;;;;
2019/07/26 03:14:32;;;;;;;9;7.4;;;;;;;25.11;58.375;997.1669;;;;
2019/07/26 03:16:58;;;;;;;8.5;6.9;;;;;;;25.17;59.44824;997.1264;;;;
2019/07/26 03:19:22;;;;;;;7.8;7;;;;;;;25.12;57.52539;997.1177;;;;
2019/07/26 03:21:50;;;;;;;7.8;7;;;;;;;25.2;57.5;997.1528;;;;
2019/07/26 03:24:14;;;;;;;9;7.1;;;;;;;25.24;57.70508;997.1638;;;;
2019/07/26 03:26:38;;;;;;;8.4;6.6;;;;;;;25.22;56.78027;997.1675;;;;
2019/07/26 03:29:04;;;;;;;7.5;6.8;;;;;;;25.26;56.27637;997.1284;;;;
2019/07/26 03:31:28;;;;;;;7.6;6.3;;;;;;;25.35;55.68359;997.1464;;;;
2019/07/26 03:33:53;;;;;;;7;6.3;;;;;;;25.43;54.97168;997.1727;;;;
2019/07/26 03:36:19;;;;;;;8.3;6.7;;;;;;;25.48;55.09668;997.1599;;;;
2019/07/26 03:38:44;;;;;;;7.3;6.1;;;;;;;25.54;54.75977;997.1565;;;;
2019/07/26 03:41:08;;;;;;;8.7;6.6;;;;;;;25.53;54.79395;997.185;;;;
2019/07/26 03:43:33;;;;;;;7.5;6.4;;;;;;;25.53;55.17285;997.1387;;;;
2019/07/26 03:45:58;;;;;;;7.8;6.6;;;;;;;25.5;56.54199;997.1216;;;;
2019/07/26 03:48:24;;;;;;;10.4;7.2;;;;;;;25.46;55.56641;997.1251;;;;
2019/07/26 03:50:49;;;;;;;8.2;6.5;;;;;;;25.41;55.80957;997.1403;;;;
2019/07/26 03:53:14;;;;;;;7.6;6.5;;;;;;;25.34;55.89551;997.0817;;;;
2019/07/26 03:55:39;;;;;;;11.2;6.4;;;;;;;25.28;56.69238;997.1125;;;;
2019/07/26 03:58:04;;;;;;;8.2;6.6;;;;;;;25.18;58.3252;997.1372;;;;
2019/07/26 04:02:29;;;;;;;15.7;7.7;;;;;;;25.01;58.7168;997.1373;;;;
2019/07/26 04:04:55;;;;;;;12.9;8.4;;;;;;;24.92;59.19043;997.1236;;;;
2019/07/26 04:07:20;;;;;;;10.1;7.6;;;;;;;24.93;58.55273;997.1038;;;;
2019/07/26 04:09:45;;;;;;;7.5;6.4;;;;;;;24.92;57.93652;997.1108;;;;
2019/07/26 04:12:09;;;;;;;9.4;6.8;;;;;;;24.9;57.95801;997.1086;;;;
2019/07/26 04:14:35;;;;;;;9.7;6.9;;;;;;;24.88;59.2666;997.1367;;;;
2019/07/26 04:16:59;;;;;;;8.8;7.6;;;;;;;24.89;59.73047;997.1533;;;;
2019/07/26 04:19:25;;;;;;;8.8;7.3;;;;;;;24.89;59.48145;997.1372;;;;
2019/07/26 04:21:49;;;;;;;9.3;6.9;;;;;;;24.93;59.70117;997.1406;;;;
2019/07/26 04:24:17;;;;;;;12.5;7.4;;;;;;;24.98;59.57617;997.1499;;;;
2019/07/26 04:26:42;;;;;;;9.9;7.6;;;;;;;25.03;59.5;997.1387;;;;
2019/07/26 04:29:07;;;;;;;8.1;6.7;;;;;;;25.03;59.31055;997.1428;;;;
2019/07/26 04:31:32;;;;;;;8.9;6.9;;;;;;;24.99;59.56738;997.1255;;;;
2019/07/26 04:33:58;;;;;;;7.7;6.9;;;;;;;24.89;58.33398;997.1245;;;;
2019/07/26 04:36:22;;;;;;;10.2;7.2;;;;;;;24.87;59.29102;997.1155;;;;
2019/07/26 04:38:48;;;;;;;9.6;7.4;;;;;;;24.85;58.82617;997.1738;;;;
2019/07/26 04:41:12;;;;;;;8.5;7;;;;;;;24.74;59.28418;997.4908;;;;
2019/07/26 04:43:37;;;;;;;7.7;6.9;;;;;;;24.88;59.0791;997.4666;;;;
2019/07/26 04:46:03;;;;;;;10.5;8.4;;;;;;;24.99;60.44141;997.4451;;;;
2019/07/26 04:48:28;;;;;;;10.6;7.9;;;;;;;25.14;60.5459;997.6166;;;;
2019/07/26 04:50:53;;;;;;;13.4;8.6;;;;;;;25.28;61.35645;997.4063;;;;
2019/07/26 04:53:18;;;;;;;10.8;9;;;;;;;25.41;61.30469;997.4208;;;;
2019/07/26 04:55:43;;;;;;;13.6;9.2;;;;;;;25.39;61.63184;997.6008;;;;
2019/07/26 04:58:08;;;;;;;13.6;9.6;;;;;;;25.35;62.19531;997.543;;;;
2019/07/26 05:00:34;;;;;;;12.1;9;;;;;;;25.65;61.40723;997.5603;;;;
2019/07/26 05:02:58;;;;;;;11.9;9.5;;;;;;;25.6;61.94531;997.6113;;;;
2019/07/26 05:05:23;;;;;;;11.4;9.5;;;;;;;25.47;62.55566;997.6169;;;;
2019/07/26 05:07:50;;;;;;;13.8;9.4;;;;;;;25.79;61.65137;997.6592;;;;
2019/07/26 05:10:15;;;;;;;13.7;9;;;;;;;25.88;61.4873;997.6443;;;;
2019/07/26 05:12:41;;;;;;;12.6;8.3;;;;;;;25.91;61.09961;997.6448;;;;
2019/07/26 05:15:03;;;;;;;11;8.9;;;;;;;26.3;60.29785;997.5867;;;;
2019/07/26 05:17:29;;;;;;;11.8;9.9;;;;;;;26.43;59.36719;997.5953;;;;
2019/07/26 05:19:55;;;;;;;12;9.2;;;;;;;26.55;58.41016;997.637;;;;
2019/07/26 05:22:20;;;;;;;15.7;9;;;;;;;26.57;58.37598;997.6501;;;;
2019/07/26 05:24:44;;;;;;;12.4;9.2;;;;;;;26.53;58.27441;997.6542;;;;
2019/07/26 05:27:09;;;;;;;13.2;9.6;;;;;;;26.49;58.45996;997.6372;;;;
2019/07/26 05:29:34;;;;;;;14;8.8;;;;;;;26.53;58.16797;997.5206;;;;
2019/07/26 05:32:02;;;;;;;14.1;9.2;;;;;;;26.61;57.9541;997.5092;;;;
2019/07/26 05:34:26;;;;;;;11.6;8.8;;;;;;;26.73;57.74316;997.4561;;;;
2019/07/26 05:36:50;;;;;;;10.7;8.7;;;;;;;26.77;57.32129;997.4363;;;;
2019/07/26 05:39:16;;;;;;;9.6;8.7;;;;;;;26.86;56.9043;997.4235;;;;
2019/07/26 05:41:45;;;;;;;11.2;8.3;;;;;;;27.02;56.63965;997.4061;;;;
2019/07/26 05:44:08;;;;;;;12;8.5;;;;;;;27.27;55.71973;997.3292;;;;
2019/07/26 05:46:33;;;;;;;14.2;8.7;;;;;;;27.26;54.98145;997.3334;;;;
2019/07/26 05:48:58;;;;;;;11.3;8.6;;;;;;;27.4;54.91602;997.3416;;;;
2019/07/26 05:51:23;;;;;;;13.7;8.7;;;;;;;27.63;53.78906;997.2272;;;;
2019/07/26 05:53:49;;;;;;;14.3;8.9;;;;;;;27.64;53.95703;997.1719;;;;
2019/07/26 05:56:13;;;;;;;11.4;8.4;;;;;;;27.68;53.52246;997.1372;;;;
2019/07/26 05:58:38;;;;;;;14.1;8.7;;;;;;;27.98;53.65137;997.1219;;;;
2019/07/26 06:01:08;;;;;;;12.7;8.3;;;;;;;28.42;51.6543;997.0846;;;;
2019/07/26 06:03:30;;;;;;;9.5;8;;;;;;;28.6;50.99512;997.116;;;;
2019/07/26 06:05:56;;;;;;;9.3;8.3;;;;;;;27.85;53.35059;997.1362;;;;
2019/07/26 06:08:22;;;;;;;14.2;8.4;;;;;;;28.62;51.34375;997.1344;;;;
2019/07/26 06:10:47;;;;;;;11;8.6;;;;;;;29;50.43164;997.1311;;;;
2019/07/26 06:13:14;;;;;;;14;8.3;;;;;;;29.24;49.41895;997.2164;;;;
2019/07/26 06:15:39;;;;;;;10.4;7.8;;;;;;;29.86;47.86035;997.2647;;;;
2019/07/26 06:18:04;;;;;;;9.4;8.1;;;;;;;29.82;47.04395;997.3091;;;;
2019/07/26 06:20:29;;;;;;;9.1;8.1;;;;;;;30.03;46.47949;997.3652;;;;
2019/07/26 06:22:55;;;;;;;10.6;8.1;;;;;;;29.5;47.77539;997.3872;;;;
2019/07/26 06:25:21;;;;;;;10.1;8.5;;;;;;;29.34;48.52344;997.3491;;;;
2019/07/26 06:27:48;;;;;;;10.6;7.8;;;;;;;29.89;47.35059;997.3572;;;;
2019/07/26 06:30:14;;;;;;;11.7;8.6;;;;;;;29.7;46.68457;997.3367;;;;
2019/07/26 06:32:38;;;;;;;13.1;9.1;;;;;;;30.26;46.32324;997.3092;;;;
2019/07/26 06:35:06;;;;;;;11;9.1;;;;;;;30.27;46.1582;997.2925;;;;
2019/07/26 06:37:33;;;;;;;12.7;8.1;;;;;;;30.56;45.76758;997.3166;;;;
2019/07/26 06:39:56;;;;;;;12.1;8;;;;;;;30.91;44.98828;997.3593;;;;
2019/07/26 06:42:22;;;;;;;12;7.7;;;;;;;31.61;43.30469;997.425;;;;
2019/07/26 06:44:47;;;;;;;13.6;7.8;;;;;;;31.65;43.02051;997.4133;;;;
2019/07/26 06:47:12;;;;;;;12.5;7.8;;;;;;;31.86;42.43945;997.4322;;;;
2019/07/26 06:49:37;;;;;;;9.3;8.3;;;;;;;32.22;41.82324;997.4542;;;;
2019/07/26 06:52:04;;;;;;;9.3;7.7;;;;;;;32.88;40.23535;997.4254;;;;
2019/07/26 06:54:29;;;;;;;12.6;8.2;;;;;;;32.95;40.02441;997.455;;;;
2019/07/26 06:56:54;;;;;;;11.1;7.6;;;;;;;33.17;39.53809;997.4927;;;;
2019/07/26 06:59:19;;;;;;;10.6;8;;;;;;;33.58;38.76563;997.4711;;;;
2019/07/26 07:01:45;;;;;;;11.9;8.5;;;;;;;34.08;38.18164;997.4967;;;;
2019/07/26 07:04:09;;;;;;;12.2;8.6;;;;;;;34.78;36.31738;997.4981;;;;
2019/07/26 07:06:34;;;;;;;11;8.4;;;;;;;36.43;33.40234;997.478;;;;
2019/07/26 07:09:00;;;;;;;10.9;8.1;;;;;;;36.44;33.125;997.4414;;;;
2019/07/26 07:11:26;;;;;;;11.2;8.2;;;;;;;37.28;31.81152;997.5073;;;;
2019/07/26 07:13:52;;;;;;;9.7;8;;;;;;;38.08;30.1377;997.4228;;;;
2019/07/26 07:16:15;;;;;;;11.9;7.5;;;;;;;37.65;30.70605;997.4319;;;;
2019/07/26 07:18:40;;;;;;;12.2;8.1;;;;;;;38.25;29.6123;997.3525;;;;
2019/07/26 07:21:06;;;;;;;11.7;8.1;;;;;;;38.26;29.6875;997.3095;;;;
2019/07/26 07:23:30;;;;;;;13.5;8.2;;;;;;;38.91;28.66699;997.3383;;;;
2019/07/26 07:25:56;;;;;;;13;8;;;;;;;40;26.70508;997.3353;;;;
2019/07/26 07:28:22;;;;;;;13.2;7.5;;;;;;;40.95;25.20313;997.3098;;;;
2019/07/26 07:30:47;;;;;;;9.1;7.8;;;;;;;41.03;25.03711;997.3222;;;;
2019/07/26 07:33:14;;;;;;;11.2;8.1;;;;;;;41.77;24.0332;997.3058;;;;
2019/07/26 07:35:39;;;;;;;11.1;7.7;;;;;;;40.79;24.75391;997.2928;;;;
2019/07/26 07:38:02;;;;;;;8.2;7.4;;;;;;;40;25.76367;997.3073;;;;
2019/07/26 07:40:34;;;;;;;11.1;6.8;;;;;;;40.19;25.50488;997.3064;;;;
2019/07/26 07:42:58;;;;;;;10.5;7.5;;;;;;;40.77;24.61816;997.2401;;;;
2019/07/26 07:45:22;;;;;;;9.6;7.8;;;;;;;41.21;23.58691;997.2539;;;;
2019/07/26 07:47:48;;;;;;;10;7.3;;;;;;;40.45;24.8584;997.1827;;;;
2019/07/26 07:50:14;;;;;;;8.4;7;;;;;;;41.62;23.6582;997.3085;;;;
2019/07/26 07:52:38;;;;;;;10.2;7.8;;;;;;;42.8;21.90918;997.2294;;;;
2019/07/26 07:55:05;;;;;;;10;6.9;;;;;;;40.23;24.43066;997.2242;;;;
2019/07/26 07:57:30;;;;;;;11.6;6.3;;;;;;;41.1;23.45996;997.228;;;;
2019/07/26 07:59:57;;;;;;;9.4;7.2;;;;;;;41.58;23.18945;997.2184;;;;
2019/07/26 08:02:20;;;;;;;9.9;6.7;;;;;;;40.47;24.44336;997.1495;;;;
2019/07/26 08:04:46;;;;;;;12;6.8;;;;;;;42.47;22.22559;997.135;;;;
2019/07/26 08:07:10;;;;;;;7.9;6.7;;;;;;;42.92;21.47266;997.1333;;;;
2019/07/26 08:09:37;;;;;;;7.6;6.7;;;;;;;40.33;24.10645;997.0924;;;;
2019/07/26 08:12:02;;;;;;;11.3;7.4;;;;;;;40.54;23.95703;997.0974;;;;
2019/07/26 08:14:29;;;;;;;8.7;6.9;;;;;;;41.59;22.82129;997.1328;;;;
2019/07/26 08:16:52;;;;;;;11.1;7.3;;;;;;;40.72;23.7832;997.0873;;;;
2019/07/26 08:19:19;;;;;;;7.7;6.4;;;;;;;43.19;21.11523;997.0707;;;;
2019/07/26 08:21:43;;;;;;;11.1;6.8;;;;;;;41;23.62598;997.0798;;;;
2019/07/26 08:24:08;;;;;;;9.4;7.1;;;;;;;41;23.78516;997.038;;;;
2019/07/26 08:26:35;;;;;;;7.8;6.8;;;;;;;41.16;23.61035;997.0309;;;;
2019/07/26 08:29:00;;;;;;;8.6;6.5;;;;;;;41.04;23.61621;996.9755;;;;
2019/07/26 08:31:27;;;;;;;9.1;7;;;;;;;42.67;21.8418;996.883;;;;
2019/07/26 08:33:50;;;;;;;7.7;6.9;;;;;;;44.11;20.4541;996.9378;;;;
2019/07/26 08:36:16;;;;;;;9.2;6.7;;;;;;;44.72;19.48047;996.9324;;;;
2019/07/26 08:38:44;;;;;;;8.6;6;;;;;;;44.84;19.12695;996.9224;;;;
2019/07/26 08:41:11;;;;;;;10.4;6.8;;;;;;;42.99;20.71289;996.9114;;;;
2019/07/26 08:43:45;;;;;;;7.5;6.2;;;;;;;42.03;21.5293;996.8992;;;;
2019/07/26 08:46:05;;;;;;;8.3;5.9;;;;;;;43.89;19.55566;996.9058;;;;
2019/07/26 08:48:32;;;;;;;8.6;6.3;;;;;;;44.4;18.84961;996.8569;;;;
2019/07/26 08:50:54;;;;;;;9.2;6.1;;;;;;;44.31;18.87012;996.805;;;;
2019/07/26 08:53:24;;;;;;;8.7;6.1;;;;;;;44.87;18.27539;996.81;;;;
2019/07/26 08:55:47;;;;;;;8.8;6.7;;;;;;;43.71;19.36328;996.7846;;;;
2019/07/26 08:58:12;;;;;;;6.7;6;;;;;;;44.32;18.75977;996.7372;;;;
2019/07/26 09:00:38;;;;;;;7.1;6.4;;;;;;;45.18;18.3125;996.7169;;;;
2019/07/26 09:03:03;;;;;;;7.3;6.3;;;;;;;42.95;20.00879;996.6789;;;;
2019/07/26 09:05:30;;;;;;;7.8;6.6;;;;;;;42.66;19.87402;996.6544;;;;
2019/07/26 09:07:57;;;;;;;7.4;6.6;;;;;;;41.07;21.47266;996.7321;;;;
2019/07/26 09:10:22;;;;;;;7.1;6.4;;;;;;;40.96;21.09961;996.7195;;;;
2019/07/26 09:12:47;;;;;;;8.8;6.3;;;;;;;42.43;19.90039;996.6417;;;;
2019/07/26 09:15:12;;;;;;;7.1;6.1;;;;;;;43.51;18.14844;996.6064;;;;
2019/07/26 09:17:44;;;;;;;9.4;6.3;;;;;;;44.14;17.85156;996.577;;;;
2019/07/26 09:20:04;;;;;;;8.7;6.1;;;;;;;42.85;19.0332;996.5572;;;;
2019/07/26 09:22:28;;;;;;;8.2;6.2;;;;;;;43.88;18.1377;996.571;;;;
2019/07/26 09:24:53;;;;;;;6.9;6.3;;;;;;;43.09;18.18066;996.5366;;;;
2019/07/26 09:27:18;;;;;;;6.8;6.1;;;;;;;44.35;17.02051;996.4993;;;;
2019/07/26 09:29:45;;;;;;;8.2;6.1;;;;;;;44.14;17.53125;996.4611;;;;
2019/07/26 09:32:12;;;;;;;9.7;6.2;;;;;;;44.49;16.87793;996.4939;;;;
2019/07/26 09:34:36;;;;;;;8.5;6.1;;;;;;;42.47;18.94336;996.4778;;;;
2019/07/26 09:37:00;;;;;;;7.8;6;;;;;;;41.84;19.40918;996.5023;;;;
2019/07/26 09:39:26;;;;;;;8.4;5.5;;;;;;;42.98;17.89355;996.4117;;;;
2019/07/26 09:41:51;;;;;;;8.2;5.9;;;;;;;42.68;18.45996;996.4185;;;;
2019/07/26 09:44:18;;;;;;;7.8;5.8;;;;;;;43.44;17.71484;996.4099;;;;
2019/07/26 09:46:43;;;;;;;9.8;6.3;;;;;;;42.76;17.76172;996.3853;;;;
2019/07/26 09:49:07;;;;;;;8.4;6;;;;;;;41.36;19.4375;996.3983;;;;
2019/07/26 09:51:37;;;;;;;6.8;5.7;;;;;;;42.77;17.12207;996.2983;;;;
2019/07/26 09:54:00;;;;;;;8.3;5.8;;;;;;;42.99;17.10645;996.2967;;;;
2019/07/26 09:56:26;;;;;;;7;6.1;;;;;;;42.23;18.11035;996.2488;;;;
2019/07/26 09:58:50;;;;;;;6.9;5.6;;;;;;;41.05;18.88574;996.2725;;;;
2019/07/26 10:01:15;;;;;;;8.5;5.7;;;;;;;41.99;18.41992;996.2924;;;;
2019/07/26 10:03:41;;;;;;;6.8;5.8;;;;;;;43.49;17.1123;996.2355;;;;
2019/07/26 10:06:06;;;;;;;8.4;6.3;;;;;;;42.33;17.75781;996.2115;;;;
2019/07/26 10:08:31;;;;;;;6.2;5.6;;;;;;;42.64;17.30273;996.1978;;;;
2019/07/26 10:10:56;;;;;;;7.5;5.5;;;;;;;40.89;18.90332;996.1663;;;;
2019/07/26 10:13:21;;;;;;;9.6;6.5;;;;;;;40.66;19.56738;996.1238;;;;
2019/07/26 10:15:46;;;;;;;8.6;6.3;;;;;;;41.72;19.05957;996.1049;;;;
2019/07/26 10:18:11;;;;;;;6.9;5.8;;;;;;;42.77;18.08203;996.0858;;;;
2019/07/26 10:20:36;;;;;;;6.9;5.7;;;;;;;42.24;18.06152;996.0264;;;;
2019/07/26 10:23:01;;;;;;;6.3;5.7;;;;;;;40.34;19.77441;996.0714;;;;
2019/07/26 10:25:26;;;;;;;7.9;6.2;;;;;;;40.72;19.52051;996.0862;;;;
2019/07/26 10:27:52;;;;;;;7.7;6.1;;;;;;;41;19.32422;996.0591;;;;
2019/07/26 10:30:17;;;;;;;7.7;6.3;;;;;;;40.17;19.96289;995.9984;;;;
2019/07/26 10:32:42;;;;;;;7.7;6;;;;;;;40.53;20.22266;996.0234;;;;
2019/07/26 10:35:07;;;;;;;7.4;6.3;;;;;;;41.41;19.40234;996.0606;;;;
2019/07/26 10:37:32;;;;;;;9.6;6.4;;;;;;;40.26;20.27246;996.0125;;;;
2019/07/26 10:39:57;;;;;;;8.8;6.2;;;;;;;41.39;19.66016;996.0229;;;;
2019/07/26 10:42:23;;;;;;;8.3;6;;;;;;;41.59;18.29395;996.0106;;;;
2019/07/26 10:44:47;;;;;;;8.1;6.2;;;;;;;41.38;18.46973;996.0218;;;;
2019/07/26 10:47:13;;;;;;;7.7;6.2;;;;;;;40.15;19.61914;995.9724;;;;
2019/07/26 10:49:38;;;;;;;8.5;6.2;;;;;;;39.03;20.6582;995.9358;;;;
2019/07/26 10:52:03;;;;;;;8.7;6.3;;;;;;;38.16;22.03223;995.8856;;;;
2019/07/26 10:54:28;;;;;;;8.9;6.5;;;;;;;38.76;21.08496;995.7938;;;;
2019/07/26 10:56:53;;;;;;;9.5;6.2;;;;;;;39.05;21.19531;995.86;;;;
2019/07/26 10:59:18;;;;;;;7.7;5.9;;;;;;;38.76;21.81641;995.7924;;;;
2019/07/26 11:01:43;;;;;;;7.8;6.3;;;;;;;38.86;22.07715;995.7422;;;;
2019/07/26 11:04:08;;;;;;;8.4;6.5;;;;;;;38.49;22.96191;995.759;;;;
2019/07/26 11:06:35;;;;;;;9.5;6.2;;;;;;;37.81;23.71875;995.7059;;;;
2019/07/26 11:09:00;;;;;;;8.7;6.3;;;;;;;38.01;23.62012;995.7012;;;;
2019/07/26 11:11:25;;;;;;;9.5;6.4;;;;;;;38.26;23.68164;995.6905;;;;
2019/07/26 11:13:50;;;;;;;7.2;6.2;;;;;;;38.82;23.00195;995.6397;;;;
2019/07/26 11:16:15;;;;;;;8.4;6.3;;;;;;;38.55;22.67188;995.5859;;;;
2019/07/26 11:18:40;;;;;;;11.7;6.3;;;;;;;38.55;22.74512;995.5881;;;;
2019/07/26 11:21:05;;;;;;;8.2;5.9;;;;;;;38.97;22.25293;995.5305;;;;
2019/07/26 11:23:31;;;;;;;9.7;5.9;;;;;;;38.94;22.06934;995.4745;;;;
2019/07/26 11:25:56;;;;;;;7.1;6.3;;;;;;;38.89;22.46875;995.4609;;;;
2019/07/26 11:28:21;;;;;;;13.5;6.7;;;;;;;38.2;23.44629;995.3931;;;;
2019/07/26 11:30:46;;;;;;;8.7;6.2;;;;;;;37.81;23.79199;995.4017;;;;
2019/07/26 11:33:11;;;;;;;9.6;6.5;;;;;;;38.36;23.74707;995.3641;;;;
2019/07/26 11:35:36;;;;;;;7;6.3;;;;;;;38.03;23.20703;995.3144;;;;
2019/07/26 11:38:02;;;;;;;7.4;6.7;;;;;;;38.4;22.9209;995.2302;;;;
2019/07/26 11:40:27;;;;;;;11.1;6.7;;;;;;;38.8;23.0752;995.2216;;;;
2019/07/26 11:42:52;;;;;;;7.6;6.2;;;;;;;38.92;22.23828;995.1914;;;;
2019/07/26 11:45:17;;;;;;;7.3;6.6;;;;;;;38.34;23.27148;995.1994;;;;
2019/07/26 11:47:42;;;;;;;9.4;6.5;;;;;;;37.75;23.87402;995.1492;;;;
2019/07/26 11:50:07;;;;;;;8.8;6.2;;;;;;;38.02;23.2666;995.1506;;;;
2019/07/26 11:52:33;;;;;;;8.1;6.5;;;;;;;37.95;23.20313;995.0883;;;;
2019/07/26 11:54:58;;;;;;;9.1;6;;;;;;;38.51;22.36523;995.0319;;;;
2019/07/26 11:57:23;;;;;;;9.6;6.5;;;;;;;38.22;21.98535;994.9665;;;;
2019/07/26 11:59:48;;;;;;;9.4;6.5;;;;;;;38.27;22.82813;994.9313;;;;
2019/07/26 12:02:13;;;;;;;7.9;6.2;;;;;;;38.37;21.82227;994.887;;;;
2019/07/26 12:04:39;;;;;;;6.9;6;;;;;;;38.84;21.32031;994.8525;;;;
2019/07/26 12:07:04;;;;;;;8.3;6.3;;;;;;;38.9;20.71289;994.7552;;;;
2019/07/26 12:09:29;;;;;;;9.3;7.2;;;;;;;39.21;21.25195;994.7644;;;;
2019/07/26 12:11:54;;;;;;;8;6.9;;;;;;;39.45;20.9209;994.7509;;;;
2019/07/26 12:14:19;;;;;;;11.5;6.1;;;;;;;39.67;20.87012;994.7184;;;;
2019/07/26 12:16:44;;;;;;;10.5;6.5;;;;;;;39.5;21.42383;994.6785;;;;
2019/07/26 12:19:10;;;;;;;6.8;5.9;;;;;;;39.55;21.05957;994.6438;;;;
2019/07/26 12:21:35;;;;;;;8.4;6.3;;;;;;;39.59;20.43848;994.6021;;;;
2019/07/26 12:24:00;;;;;;;7.4;6.6;;;;;;;39.42;20.96875;994.5276;;;;
2019/07/26 12:26:25;;;;;;;9.9;6.4;;;;;;;38.68;21.8252;994.4352;;;;
2019/07/26 12:28:50;;;;;;;8.2;6.3;;;;;;;39.02;21.76758;994.4487;;;;
2019/07/26 12:31:15;;;;;;;7.2;6.5;;;;;;;38.76;21.9873;994.3836;;;;
2019/07/26 12:33:40;;;;;;;8.1;6.4;;;;;;;38.79;22.19629;994.3533;;;;
2019/07/26 12:36:05;;;;;;;7.3;6.5;;;;;;;38.92;22.54395;994.3245;;;;
2019/07/26 12:38:30;;;;;;;11.5;7.1;;;;;;;38.63;22.95605;994.3125;;;;
2019/07/26 12:40:55;;;;;;;9.6;6.7;;;;;;;39.17;22.91016;994.3583;;;;
2019/07/26 12:43:20;;;;;;;10;6.8;;;;;;;39.16;22.54395;994.2827;;;;
2019/07/26 12:45:46;;;;;;;8.9;7;;;;;;;39.2;22.83887;994.2478;;;;
2019/07/26 12:48:11;;;;;;;8.7;6.9;;;;;;;39.57;21.99023;994.223;;;;
2019/07/26 12:50:36;;;;;;;7.4;6.7;;;;;;;39.43;22.37305;994.2158;;;;
2019/07/26 12:53:01;;;;;;;8.8;6.7;;;;;;;39.2;23.02148;994.1925;;;;
2019/07/26 12:55:26;;;;;;;10.6;6.8;;;;;;;39.11;22.94336;994.1954;;;;
2019/07/26 12:57:51;;;;;;;9.7;7.4;;;;;;;38.83;23.4668;994.127;;;;
2019/07/26 13:00:16;;;;;;;7.7;6.9;;;;;;;38.7;23.92285;994.1231;;;;
2019/07/26 13:02:42;;;;;;;9.7;7.2;;;;;;;38.76;24.04785;994.0759;;;;
2019/07/26 13:05:07;;;;;;;11.8;6.8;;;;;;;38.55;24.00098;994.0275;;;;
2019/07/26 13:07:32;;;;;;;10.3;7.3;;;;;;;37.96;25.19922;994.0128;;;;
2019/07/26 13:09:57;;;;;;;9.3;6.6;;;;;;;38.15;24.91797;994.0214;;;;
2019/07/26 13:12:22;;;;;;;8.2;6.8;;;;;;;38.36;24.64844;993.9924;;;;
2019/07/26 13:14:48;;;;;;;10;7.5;;;;;;;38.65;24.0791;994.0259;;;;
2019/07/26 13:17:13;;;;;;;8.8;6.9;;;;;;;38.66;23.96973;993.9277;;;;
2019/07/26 13:19:38;;;;;;;7.4;6.6;;;;;;;38.72;23.82617;993.9263;;;;
2019/07/26 13:22:03;;;;;;;10.2;7.7;;;;;;;38.66;23.9209;993.8683;;;;
2019/07/26 13:24:28;;;;;;;9.9;7.5;;;;;;;38.27;24.26563;993.8295;;;;
2019/07/26 13:26:53;;;;;;;7.4;6.5;;;;;;;38.07;24.10938;993.8117;;;;
2019/07/26 13:29:19;;;;;;;8.6;6.9;;;;;;;38.15;25.08789;993.8055;;;;
2019/07/26 13:31:44;;;;;;;11.4;7.2;;;;;;;37.93;25.19824;993.7402;;;;
2019/07/26 13:34:09;;;;;;;13;7;;;;;;;37.89;25.40234;993.6774;;;;
2019/07/26 13:36:34;;;;;;;13.5;7.3;;;;;;;37.96;25.47949;993.6638;;;;
2019/07/26 13:38:59;;;;;;;9.5;7.6;;;;;;;37.98;25.77246;993.606;;;;
2019/07/26 13:41:24;;;;;;;10.1;7.8;;;;;;;38.03;25.93359;993.5334;;;;
2019/07/26 13:43:49;;;;;;;9.5;7.7;;;;;;;38.26;25.55762;993.467;;;;
2019/07/26 13:46:14;;;;;;;11.2;7.5;;;;;;;37.93;25.51465;993.4615;;;;
2019/07/26 13:48:39;;;;;;;8.6;7.6;;;;;;;37.53;25.66211;993.4639;;;;
2019/07/26 13:51:04;;;;;;;10.9;7.7;;;;;;;38.01;25.31152;993.3987;;;;
2019/07/26 13:53:29;;;;;;;10.2;7.2;;;;;;;38.12;25.45117;993.3593;;;;
2019/07/26 13:55:55;;;;;;;7.2;6.5;;;;;;;37.9;24.14941;993.3667;;;;
2019/07/26 13:58:20;;;;;;;9.9;6.6;;;;;;;38.11;23.89258;993.2654;;;;
2019/07/26 14:00:45;;;;;;;7.7;6.6;;;;;;;38.24;24.22852;993.262;;;;
2019/07/26 14:03:11;;;;;;;7.7;6.3;;;;;;;38.43;23.94531;993.2377;;;;
2019/07/26 14:05:35;;;;;;;7.3;6.6;;;;;;;38.54;24;993.2458;;;;
2019/07/26 14:08:01;;;;;;;6.8;6;;;;;;;38.66;23.34766;993.2609;;;;
2019/07/26 14:10:26;;;;;;;8.1;6.5;;;;;;;38.74;22.97363;993.238;;;;
2019/07/26 14:12:51;;;;;;;7.7;6.1;;;;;;;38.46;22.95996;993.2109;;;;